Time;durP1;ratioP1;P1;durP2;ratioP2;P2;SDS_P1;SDS_P2;PMS_P1;PMS_P2;Temp;Humidity;BMP_temperature;BMP_pressure;BME280_temperature;BME280_humidity;BME280_pressure;Samples;Min_cycle;Max_cycle;Signal;HPM_P1;HPM_P2
2022/12/05 00:01:50;;;;;;;39.43;26.10;;;;;;;1.77;100.00;101781.72;5075604;28;20028;-34
2022/12/05 00:04:15;;;;;;;37.83;26.93;;;;;;;1.76;100.00;101780.88;5076280;28;20099;-34
2022/12/05 00:06:42;;;;;;;41.13;27.40;;;;;;;1.71;100.00;101769.84;5075775;28;20059;-34
2022/12/05 00:09:08;;;;;;;;;;;;;;;1.83;100.00;101777.59;5075590;28;20043;-34
2022/12/05 00:11:36;;;;;;;37.15;25.50;;;;;;;1.81;100.00;101788.44;5075322;28;19912;-34
2022/12/05 00:14:03;;;;;;;36.33;25.73;;;;;;;1.72;100.00;101762.66;5075611;28;20346;-34
2022/12/05 00:16:30;;;;;;;37.10;25.23;;;;;;;1.80;100.00;101781.41;5074036;28;20028;-34
2022/12/05 00:18:58;;;;;;;34.80;25.02;;;;;;;1.88;100.00;101778.00;5074988;28;20035;-34
2022/12/05 00:21:27;;;;;;;37.15;25.75;;;;;;;1.80;100.00;101770.72;5075262;28;20029;-34
2022/12/05 00:23:54;;;;;;;39.85;28.27;;;;;;;1.89;100.00;101785.00;5075269;28;20385;-34
2022/12/05 00:26:20;;;;;;;37.33;27.10;;;;;;;1.86;100.00;101780.81;5075119;28;20166;-34
2022/12/05 00:28:46;;;;;;;38.28;26.92;;;;;;;1.89;100.00;101785.00;5075609;28;20020;-34
2022/12/05 00:31:15;;;;;;;37.63;26.35;;;;;;;1.96;100.00;101775.41;5073683;28;20082;-34
2022/12/05 00:33:40;;;;;;;38.30;27.50;;;;;;;1.96;100.00;101775.41;5075265;28;20447;-34
2022/12/05 00:36:11;;;;;;;36.85;26.77;;;;;;;1.92;100.00;101763.38;5075154;28;20132;-34
2022/12/05 00:38:37;;;;;;;36.60;27.30;;;;;;;1.91;100.00;101767.03;5074844;28;20033;-34
2022/12/05 00:41:07;;;;;;;43.40;30.00;;;;;;;1.91;100.00;101767.88;5074480;28;20024;-34
2022/12/05 00:43:33;;;;;;;38.10;26.88;;;;;;;1.82;100.00;101757.25;5074505;28;20063;-34
2022/12/05 00:46:03;;;;;;;34.90;27.03;;;;;;;1.90;100.00;101762.66;5074478;28;20048;-34
2022/12/05 00:48:29;;;;;;;38.38;27.80;;;;;;;1.95;100.00;101763.03;5074769;28;20036;-34
2022/12/05 00:51:03;;;;;;;39.28;27.92;;;;;;;1.96;100.00;101752.25;5074539;28;20074;-34
2022/12/05 00:53:29;;;;;;;36.25;25.00;;;;;;;2.05;100.00;101775.34;5074636;28;20115;-34
2022/12/05 00:55:54;;;;;;;35.90;26.65;;;;;;;2.00;100.00;101766.97;5074560;28;20476;-34
2022/12/05 00:58:19;;;;;;;39.77;27.07;;;;;;;2.01;100.00;101771.28;5074210;28;20031;-34
2022/12/05 01:00:45;;;;;;;33.20;25.33;;;;;;;2.11;100.00;101762.38;5074424;28;20059;-34
2022/12/05 01:03:10;;;;;;;35.77;26.07;;;;;;;2.10;100.00;101768.69;5074061;28;20490;-34
2022/12/05 01:05:35;;;;;;;36.87;26.70;;;;;;;2.08;100.00;101768.00;5073419;28;20029;-34
2022/12/05 01:08:01;;;;;;;36.13;27.70;;;;;;;2.03;100.00;101769.28;5075089;28;20028;-35
2022/12/05 01:10:26;;;;;;;33.37;25.17;;;;;;;2.08;100.00;101773.34;5074182;28;20052;-34
2022/12/05 01:12:51;;;;;;;33.67;25.70;;;;;;;2.06;100.00;101771.66;5073350;28;20096;-35
2022/12/05 01:15:17;;;;;;;33.30;26.63;;;;;;;2.09;100.00;101775.84;5074098;28;20024;-34
2022/12/05 01:17:42;;;;;;;33.80;25.23;;;;;;;2.11;100.00;101770.38;5074196;28;20370;-35
2022/12/05 01:20:08;;;;;;;33.83;24.90;;;;;;;2.12;100.00;101762.22;5073945;28;20036;-34
2022/12/05 01:22:33;;;;;;;35.55;25.60;;;;;;;2.15;100.00;101774.41;5074485;28;20032;-35
2022/12/05 01:24:58;;;;;;;36.73;26.47;;;;;;;2.18;100.00;101777.59;5074435;28;20020;-34
2022/12/05 01:27:24;;;;;;;34.97;25.47;;;;;;;2.09;100.00;101781.19;5074254;28;20037;-34
2022/12/05 01:29:49;;;;;;;32.63;24.73;;;;;;;2.19;100.00;101786.44;5074052;28;20025;-34
2022/12/05 01:32:14;;;;;;;36.83;26.33;;;;;;;2.22;100.00;101781.66;5073791;28;20035;-34
2022/12/05 01:34:40;;;;;;;32.97;24.00;;;;;;;2.25;100.00;101785.84;5073549;28;20021;-34
2022/12/05 01:37:05;;;;;;;35.50;26.60;;;;;;;2.02;100.00;101759.63;5074645;28;20524;-34
2022/12/05 01:39:31;;;;;;;34.63;25.00;;;;;;;2.23;100.00;101790.50;5073699;28;20037;-35
2022/12/05 01:41:56;;;;;;;33.90;25.53;;;;;;;2.16;100.00;101782.28;5073367;28;20036;-35
2022/12/05 01:44:22;;;;;;;34.70;25.23;;;;;;;2.26;100.00;101791.03;5073924;28;20021;-35
2022/12/05 01:46:49;;;;;;;34.63;26.03;;;;;;;2.24;100.00;101802.84;5073558;28;20384;-34
2022/12/05 01:49:20;;;;;;;35.28;25.55;;;;;;;2.21;100.00;101796.00;5073750;28;20047;-34
2022/12/05 01:51:48;;;;;;;34.17;26.48;;;;;;;2.10;100.00;101772.22;5073627;28;20464;-33
2022/12/05 01:54:17;;;;;;;34.13;25.73;;;;;;;2.16;100.00;101792.09;5073198;28;20032;-35
2022/12/05 01:56:47;;;;;;;37.13;25.95;;;;;;;2.19;100.00;101791.78;5073183;28;20546;-34
2022/12/05 01:59:13;;;;;;;35.22;26.73;;;;;;;2.21;100.00;101811.16;5073701;28;20115;-34
2022/12/05 02:01:39;;;;;;;34.20;25.80;;;;;;;2.25;100.00;101813.38;5073764;28;20111;-33
2022/12/05 02:04:06;;;;;;;31.65;24.65;;;;;;;2.31;100.00;101810.09;5073576;28;20025;-34
2022/12/05 02:06:31;;;;;;;;;;;;;;;2.31;100.00;101807.44;5074467;28;20318;-34
2022/12/05 02:08:57;;;;;;;37.55;27.45;;;;;;;2.13;100.00;101787.06;5074018;28;19912;-34
2022/12/05 02:11:24;;;;;;;34.63;27.47;;;;;;;2.21;100.00;101800.50;5072762;28;20107;-34
2022/12/05 02:14:23;;;;;;;36.50;25.75;;;;;;;2.30;100.00;101807.59;5072934;28;20016;-34
2022/12/05 02:17:01;;;;;;;35.50;25.65;;;;;;;2.38;100.00;101806.81;5072500;28;20024;-34
2022/12/05 02:19:35;;;;;;;33.78;25.63;;;;;;;2.22;100.00;101794.16;5072762;28;20082;-34
2022/12/05 02:22:27;;;;;;;39.65;25.98;;;;;;;2.25;100.00;101801.88;5073007;28;20021;-34
2022/12/05 02:25:04;;;;;;;36.25;25.67;;;;;;;2.25;100.00;101802.72;5073499;28;20048;-34
2022/12/05 02:28:07;;;;;;;36.35;26.67;;;;;;;2.31;100.00;101807.44;5072950;28;20043;-34
2022/12/05 02:30:52;;;;;;;35.47;26.15;;;;;;;2.33;100.00;101802.75;5073186;28;20028;-34
2022/12/05 02:33:41;;;;;;;36.65;26.58;;;;;;;2.35;100.00;101807.97;5072993;28;20024;-34
2022/12/05 02:36:15;;;;;;;35.50;25.67;;;;;;;2.36;100.00;101803.47;5073413;28;20048;-34
2022/12/05 02:39:01;;;;;;;37.08;27.60;;;;;;;2.23;100.00;101791.31;5073270;28;20104;-34
2022/12/05 02:41:39;;;;;;;37.75;27.83;;;;;;;2.28;100.00;101802.38;5072880;28;20032;-34
2022/12/05 02:44:37;;;;;;;35.50;26.67;;;;;;;2.32;100.00;101800.25;5072948;28;20071;-34
2022/12/05 02:47:06;;;;;;;37.80;26.92;;;;;;;2.21;100.00;101787.97;5070852;28;20091;-34
2022/12/05 02:49:35;;;;;;;40.50;29.25;;;;;;;2.21;100.00;101796.00;5073134;28;20040;-34
2022/12/05 02:52:03;;;;;;;36.25;26.73;;;;;;;2.28;100.00;101798.88;5072590;28;20025;-34
2022/12/05 02:54:34;;;;;;;38.85;27.42;;;;;;;2.11;100.00;101767.72;5072747;28;20380;-34
2022/12/05 02:57:00;;;;;;;38.00;27.85;;;;;;;2.23;100.00;101801.16;5072421;28;20054;-34
2022/12/05 02:59:25;;;;;;;35.50;26.25;;;;;;;2.30;100.00;101805.75;5071866;28;20462;-34
2022/12/05 03:01:51;;;;;;;39.50;28.47;;;;;;;2.33;100.00;101808.09;5072284;28;20377;-34
2022/12/05 03:04:19;;;;;;;38.42;27.38;;;;;;;2.29;100.00;101809.41;5072928;28;20085;-32
2022/12/05 03:06:50;;;;;;;37.05;26.90;;;;;;;2.33;100.00;101812.59;5072497;28;20028;-34
2022/12/05 03:09:20;;;;;;;38.30;27.90;;;;;;;2.33;100.00;101809.94;5073161;28;20170;-34
2022/12/05 03:11:50;;;;;;;39.95;26.75;;;;;;;2.32;100.00;101805.59;5072995;28;20029;-34
2022/12/05 03:14:24;;;;;;;41.20;28.65;;;;;;;2.32;100.00;101813.59;5073074;28;20078;-34
2022/12/05 03:16:52;;;;;;;37.10;27.15;;;;;;;2.37;100.00;101810.47;5072930;28;20029;-34
2022/12/05 03:19:29;;;;;;;32.08;23.83;;;;;;;2.46;100.00;101805.03;5072207;28;20068;-34
2022/12/05 03:22:06;;;;;;;41.50;27.67;;;;;;;2.37;100.00;101805.97;5072360;28;20465;-34
2022/12/05 03:24:36;;;;;;;38.75;27.10;;;;;;;2.32;100.00;101806.44;5072401;28;20433;-34
2022/12/05 03:27:12;;;;;;;42.15;28.92;;;;;;;2.25;100.00;101797.38;5072426;28;20082;-34
2022/12/05 03:30:03;;;;;;;42.05;27.98;;;;;;;2.20;100.00;101794.31;5076704;28;20133;-34
2022/12/05 03:32:47;;;;;;;41.25;28.67;;;;;;;2.27;100.00;101805.22;5076381;28;20106;-34
2022/12/05 03:35:35;;;;;;;43.03;28.92;;;;;;;2.24;100.00;101798.34;5076219;28;20436;-34
2022/12/05 03:38:33;;;;;;;37.90;27.77;;;;;;;2.33;100.00;101805.44;5076541;28;20090;-34
2022/12/05 03:41:06;;;;;;;37.05;26.52;;;;;;;2.39;100.00;101804.00;5076493;28;20028;-34
2022/12/05 03:43:59;;;;;;;42.78;28.77;;;;;;;2.36;100.00;101801.63;5076239;28;20028;-34
2022/12/05 03:46:42;;;;;;;37.08;26.55;;;;;;;2.39;100.00;101803.13;5075852;28;20468;-34
2022/12/05 03:49:15;;;;;;;38.40;27.58;;;;;;;2.46;100.00;101796.19;5076460;28;20483;-34
2022/12/05 03:52:10;;;;;;;41.90;28.05;;;;;;;2.31;100.00;101796.75;5076026;28;20032;-34
2022/12/05 03:54:50;;;;;;;40.80;27.70;;;;;;;2.31;100.00;101807.44;5020595;28;20097;-35
2022/12/05 03:57:19;;;;;;;42.75;29.52;;;;;;;2.26;100.00;101804.38;5034163;28;20037;-35
2022/12/05 03:59:50;;;;;;;42.10;28.55;;;;;;;2.29;100.00;101804.09;5033413;28;20042;-35
2022/12/05 04:02:44;;;;;;;41.28;25.33;;;;;;;2.37;100.00;101813.13;5033377;28;20034;-34
2022/12/05 04:05:31;;;;;;;41.20;28.80;;;;;;;2.28;100.00;101802.38;5033776;28;20041;-34
2022/12/05 04:08:03;;;;;;;38.78;27.17;;;;;;;2.31;100.00;101802.09;5033916;28;20168;-34
2022/12/05 04:10:47;;;;;;;41.20;29.27;;;;;;;2.21;100.00;101797.81;5033599;28;20033;-35
2022/12/05 04:13:18;;;;;;;42.08;28.30;;;;;;;2.24;100.00;101811.69;5033223;28;20144;-35
2022/12/05 04:18:57;;;;;;;45.50;28.30;;;;;;;2.28;100.00;101818.41;5033850;28;20190;-34
2022/12/05 04:21:38;;;;;;;39.28;26.65;;;;;;;2.29;100.00;101820.09;5033215;28;20037;-35
2022/12/05 04:27:09;;;;;;;42.53;29.17;;;;;;;2.22;100.00;101819.00;5033049;28;20084;-35
2022/12/05 04:29:58;;;;;;;37.97;26.27;;;;;;;2.26;100.00;101814.22;5032682;28;20029;-35
2022/12/05 04:32:29;;;;;;;40.05;26.23;;;;;;;2.31;100.00;101814.59;5057970;28;20032;-35
2022/12/05 04:35:00;;;;;;;44.85;31.60;;;;;;;2.24;100.00;101816.19;5074992;28;20028;-34
2022/12/05 04:37:30;;;;;;;41.72;29.13;;;;;;;2.26;100.00;101819.56;5075295;28;20076;-34
2022/12/05 04:40:00;;;;;;;40.30;26.48;;;;;;;2.33;100.00;101812.59;5074423;28;20032;-35
2022/12/05 04:42:29;;;;;;;42.13;27.10;;;;;;;2.32;100.00;101810.94;5073457;28;20494;-35
2022/12/05 04:45:01;;;;;;;40.13;28.10;;;;;;;2.29;100.00;101819.22;5075004;28;20039;-35
2022/12/05 04:47:31;;;;;;;39.80;27.95;;;;;;;2.31;100.00;101828.78;5075367;28;20109;-35
2022/12/05 04:49:59;;;;;;;40.08;29.10;;;;;;;2.27;100.00;101823.91;5074632;28;20020;-35
2022/12/05 04:52:24;;;;;;;44.22;30.70;;;;;;;2.30;100.00;101835.13;5074433;28;20035;-35
2022/12/05 04:55:04;;;;;;;41.10;28.02;;;;;;;2.35;100.00;101826.66;5074584;28;20033;-35
2022/12/05 04:57:34;;;;;;;41.15;27.25;;;;;;;2.31;100.00;101809.25;5074243;28;20070;-34
2022/12/05 04:59:59;;;;;;;43.25;27.90;;;;;;;2.34;100.00;101824.94;5074373;28;20104;-34
2022/12/05 05:02:49;;;;;;;40.93;27.60;;;;;;;2.37;100.00;101827.31;5074504;28;20066;-34
2022/12/05 05:05:17;;;;;;;39.85;27.55;;;;;;;2.39;100.00;101822.69;5074872;28;20032;-38
2022/12/05 05:07:50;;;;;;;40.70;27.90;;;;;;;2.35;100.00;101817.81;5074385;28;20048;-35
2022/12/05 05:10:21;;;;;;;41.47;27.42;;;;;;;2.36;100.00;101816.81;5074569;28;20025;-35
2022/12/05 05:12:47;;;;;;;40.70;27.48;;;;;;;2.33;100.00;101815.25;5074035;28;20024;-35
2022/12/05 05:15:12;;;;;;;37.63;27.97;;;;;;;2.37;100.00;101815.81;5074123;28;20030;-35
2022/12/05 05:17:37;;;;;;;40.77;28.00;;;;;;;2.29;100.00;101809.41;5074244;28;20020;-35
2022/12/05 05:22:48;;;;;;;37.72;26.63;;;;;;;2.36;100.00;101820.31;5073913;28;20043;-34
2022/12/05 05:25:13;;;;;;;41.75;27.70;;;;;;;2.33;100.00;101826.78;5074372;28;20101;-35
2022/12/05 05:27:39;;;;;;;38.57;26.20;;;;;;;2.40;100.00;101826.19;5074119;28;20457;-35
2022/12/05 05:30:05;;;;;;;40.70;27.37;;;;;;;2.39;100.00;101840.50;5073826;28;20025;-35
2022/12/05 05:32:31;;;;;;;41.00;27.40;;;;;;;2.42;100.00;101834.88;5073904;28;20029;-35
2022/12/05 05:34:57;;;;;;;36.72;26.35;;;;;;;2.43;100.00;101832.03;5073505;28;20417;-34
2022/12/05 05:37:22;;;;;;;43.37;30.23;;;;;;;2.39;100.00;101837.84;5074807;28;20098;-35
2022/12/05 05:39:47;;;;;;;39.17;27.57;;;;;;;2.39;100.00;101832.50;5074000;28;20085;-34
2022/12/05 05:42:13;;;;;;;35.87;26.10;;;;;;;2.42;100.00;101833.03;5073355;28;20036;-35
2022/12/05 05:44:38;;;;;;;41.97;28.00;;;;;;;2.41;100.00;101839.38;5073682;28;20123;-35
2022/12/05 05:47:03;;;;;;;34.40;25.30;;;;;;;2.45;100.00;101835.41;5073564;28;20398;-35
2022/12/05 05:49:29;;;;;;;39.50;27.70;;;;;;;2.43;100.00;101831.19;5073529;28;20076;-35
2022/12/05 05:51:54;;;;;;;35.70;26.43;;;;;;;2.48;100.00;101834.25;5072933;28;20380;-35
2022/12/05 05:54:19;;;;;;;35.23;25.20;;;;;;;2.48;100.00;101839.59;5071989;28;20047;-35
2022/12/05 05:56:44;;;;;;;33.93;24.07;;;;;;;2.49;100.00;101830.59;5073123;28;20024;-35
2022/12/05 05:59:10;;;;;;;36.17;26.03;;;;;;;2.47;100.00;101833.41;5073961;28;20032;-35
2022/12/05 06:01:35;;;;;;;34.87;25.67;;;;;;;2.49;100.00;101838.59;5073748;28;20025;-35
2022/12/05 06:04:00;;;;;;;35.50;25.50;;;;;;;2.49;100.00;101839.47;5073334;28;20037;-35
2022/12/05 06:06:26;;;;;;;33.43;24.57;;;;;;;2.49;100.00;101831.44;5073928;28;20093;-35
2022/12/05 06:08:53;;;;;;;35.47;24.38;;;;;;;2.53;100.00;101837.28;5073221;28;20032;-35
2022/12/05 06:11:22;;;;;;;36.70;24.30;;;;;;;2.57;100.00;101838.66;5073274;28;20046;-35
2022/12/05 06:13:48;;;;;;;31.92;22.95;;;;;;;2.43;100.00;101821.38;5073039;28;20039;-35
2022/12/05 06:16:19;;;;;;;32.50;23.47;;;;;;;2.53;100.00;101843.47;5073328;28;20028;-35
2022/12/05 06:18:45;;;;;;;31.73;23.20;;;;;;;2.56;100.00;101845.00;5073053;28;20275;-35
2022/12/05 06:21:10;;;;;;;29.93;23.40;;;;;;;2.53;100.00;101843.47;5073674;28;20040;-35
2022/12/05 06:23:38;;;;;;;28.20;21.13;;;;;;;2.62;100.00;101843.56;5073608;28;20032;-35
2022/12/05 06:26:04;;;;;;;31.10;22.70;;;;;;;2.56;100.00;101834.34;5073168;28;20472;-34
2022/12/05 06:28:29;;;;;;;;;;;;;;;2.66;100.00;101848.44;5073331;28;20032;-35
2022/12/05 06:30:55;;;;;;;29.48;21.92;;;;;;;2.64;100.00;101854.94;5072804;28;19966;-35
2022/12/05 06:33:20;;;;;;;26.43;20.67;;;;;;;2.63;100.00;101854.06;5073118;28;20461;-35
2022/12/05 06:35:46;;;;;;;27.53;21.47;;;;;;;2.63;100.00;101845.22;5072955;28;20024;-35
2022/12/05 06:38:11;;;;;;;31.55;22.65;;;;;;;2.66;100.00;101861.78;5073121;28;20520;-35
2022/12/05 06:40:42;;;;;;;29.05;22.02;;;;;;;2.57;100.00;101839.50;5072772;28;20476;-35
2022/12/05 06:43:07;;;;;;;30.95;22.17;;;;;;;2.66;100.00;101858.28;5073049;28;20473;-35
2022/12/05 06:45:32;;;;;;;28.10;21.83;;;;;;;2.69;100.00;101857.97;5072477;28;20105;-35
2022/12/05 06:47:58;;;;;;;30.17;22.70;;;;;;;2.68;100.00;101857.13;5072724;28;20081;-35
2022/12/05 06:50:23;;;;;;;29.03;21.73;;;;;;;2.69;100.00;101856.16;5072768;28;20032;-35
2022/12/05 06:52:50;;;;;;;28.13;21.93;;;;;;;2.67;100.00;101852.78;5072769;28;20067;-35
2022/12/05 06:55:15;;;;;;;26.42;20.73;;;;;;;2.72;100.00;101855.81;5072377;28;20538;-35
2022/12/05 06:57:40;;;;;;;30.42;22.23;;;;;;;2.69;100.00;101853.47;5073196;28;20029;-35
2022/12/05 07:02:51;;;;;;;28.30;21.23;;;;;;;2.71;100.00;101862.16;5075912;28;20149;-34
2022/12/05 07:05:17;;;;;;;24.65;18.42;;;;;;;2.67;100.00;101844.75;5076932;28;20031;-35
2022/12/05 07:07:42;;;;;;;23.63;19.10;;;;;;;2.78;100.00;101862.38;5077167;28;20037;-35
2022/12/05 07:10:08;;;;;;;27.73;20.20;;;;;;;2.76;100.00;101867.88;5076618;28;20285;-35
2022/12/05 07:12:34;;;;;;;26.42;20.90;;;;;;;2.73;100.00;101867.34;5076973;28;20441;-35
2022/12/05 07:15:00;;;;;;;26.27;19.73;;;;;;;2.77;100.00;101866.03;5076496;28;20025;-35
2022/12/05 07:17:25;;;;;;;29.67;21.92;;;;;;;2.75;100.00;101878.72;5075242;28;20117;-35
2022/12/05 07:19:51;;;;;;;27.80;20.20;;;;;;;2.76;100.00;101880.41;5076487;28;20056;-35
2022/12/05 07:22:18;;;;;;;;;;;;;;;2.82;100.00;101879.75;5077307;28;20040;-35
2022/12/05 07:24:44;;;;;;;24.40;19.25;;;;;;;2.80;100.00;101887.09;5076467;28;19909;-35
2022/12/05 07:27:11;;;;;;;25.40;19.83;;;;;;;2.69;100.00;101874.84;5077207;28;20432;-35
2022/12/05 07:29:36;;;;;;;;;;;;;;;2.82;100.00;101887.78;5077028;28;20419;-35
2022/12/05 07:32:02;;;;;;;24.77;18.80;;;;;;;2.74;100.00;101887.72;5075755;28;19995;-35
2022/12/05 07:34:27;;;;;;;26.23;20.38;;;;;;;2.80;100.00;101889.78;5076672;28;20043;-35
2022/12/05 07:36:52;;;;;;;24.67;19.30;;;;;;;2.82;100.00;101885.94;5076366;28;20044;-35
2022/12/05 07:39:18;;;;;;;25.80;20.13;;;;;;;2.84;100.00;101891.16;5076334;28;20040;-35
2022/12/05 07:41:43;;;;;;;23.70;18.52;;;;;;;2.93;100.00;101889.34;5076516;28;20035;-35
2022/12/05 07:44:11;;;;;;;25.60;20.40;;;;;;;2.92;100.00;101895.72;5076446;28;20029;-35
2022/12/05 07:46:37;;;;;;;28.30;19.63;;;;;;;2.88;100.00;101895.19;5075609;28;20028;-34
2022/12/05 07:49:03;;;;;;;26.38;19.17;;;;;;;2.89;100.00;101882.69;5075623;28;20453;-35
2022/12/05 07:51:28;;;;;;;23.63;18.52;;;;;;;2.92;100.00;101887.69;5075683;28;20028;-35
2022/12/05 07:53:54;;;;;;;26.35;19.85;;;;;;;2.92;100.00;101893.03;5075960;28;20074;-35
2022/12/05 07:56:20;;;;;;;23.90;18.92;;;;;;;2.92;100.00;101885.03;5076242;28;20029;-34
2022/12/05 07:58:48;;;;;;;25.35;19.33;;;;;;;2.95;100.00;101901.59;5076142;28;20029;-35
2022/12/05 08:01:25;;;;;;;26.58;20.30;;;;;;;2.99;100.00;101900.28;5075201;28;20029;-35
2022/12/05 08:03:56;;;;;;;23.88;19.20;;;;;;;2.98;100.00;101906.63;5075832;28;20142;-35
2022/12/05 08:06:24;;;;;;;23.60;19.10;;;;;;;3.03;100.00;101911.50;5075727;28;20379;-35
2022/12/05 08:08:50;;;;;;;23.55;18.15;;;;;;;3.08;100.00;101909.22;5075807;28;20107;-35
2022/12/05 08:11:21;;;;;;;27.73;21.30;;;;;;;2.95;100.00;101893.56;5075500;28;20518;-35
2022/12/05 08:13:46;;;;;;;26.48;20.05;;;;;;;3.08;100.00;101915.38;5075148;28;20063;-35
2022/12/05 08:16:14;;;;;;;22.60;17.47;;;;;;;3.21;100.00;101924.81;5075581;28;20115;-35
2022/12/05 08:18:40;;;;;;;21.58;17.27;;;;;;;3.37;100.00;101927.63;5075022;28;20029;-35
2022/12/05 08:21:08;;;;;;;22.88;17.95;;;;;;;3.27;100.00;101919.72;5074928;28;20058;-35
2022/12/05 08:23:34;;;;;;;23.38;18.30;;;;;;;3.25;100.00;101926.19;5074996;28;20032;-35
2022/12/05 08:26:03;;;;;;;22.90;18.35;;;;;;;3.23;100.00;101923.69;5074829;28;20031;-35
2022/12/05 08:28:29;;;;;;;22.75;18.35;;;;;;;3.24;100.00;101924.53;5075191;28;20036;-35
2022/12/05 08:30:54;;;;;;;;;;;;;;;3.29;100.00;101932.91;5075371;28;20032;-35
2022/12/05 08:33:20;;;;;;;23.87;18.30;;;;;;;3.20;100.00;101913.28;5075565;28;19913;-35
2022/12/05 08:35:45;;;;;;;22.63;17.33;;;;;;;3.33;100.00;101935.13;5074770;28;20358;-35
2022/12/05 08:38:10;;;;;;;21.47;17.30;;;;;;;3.31;100.00;101934.41;5075497;28;20123;-34
2022/12/05 08:40:36;;;;;;;24.90;19.67;;;;;;;3.29;100.00;101940.94;5074966;28;20193;-35
2022/12/05 08:43:01;;;;;;;23.00;17.23;;;;;;;3.37;100.00;101938.31;5074922;28;20044;-35
2022/12/05 08:45:26;;;;;;;23.60;19.67;;;;;;;3.25;100.00;101931.53;5074845;28;20042;-34
2022/12/05 08:47:52;;;;;;;22.93;18.33;;;;;;;3.29;100.00;101936.41;5074883;28;20353;-35
2022/12/05 08:50:17;;;;;;;22.20;18.33;;;;;;;3.38;100.00;101944.50;5074655;28;20052;-35
2022/12/05 08:52:42;;;;;;;22.47;18.30;;;;;;;3.48;100.00;101937.22;5075351;28;20480;-35
2022/12/05 08:55:08;;;;;;;24.77;18.83;;;;;;;3.33;100.00;101932.44;5074343;28;20028;-35
2022/12/05 08:57:33;;;;;;;22.08;17.45;;;;;;;3.53;100.00;101945.59;5073963;28;20120;-35
2022/12/05 08:59:59;;;;;;;21.37;16.57;;;;;;;3.60;100.00;101944.78;5074272;28;20024;-35
2022/12/05 09:02:24;;;;;;;26.63;20.40;;;;;;;3.40;100.00;101932.63;5074581;28;20038;-35
2022/12/05 09:04:50;;;;;;;26.73;21.00;;;;;;;3.42;100.00;101945.88;5074506;28;20409;-35
2022/12/05 09:07:16;;;;;;;24.23;20.15;;;;;;;3.42;100.00;101941.34;5075020;28;20029;-35
2022/12/05 09:09:41;;;;;;;24.87;20.10;;;;;;;3.42;100.00;101946.72;5074687;28;20059;-35
2022/12/05 09:12:06;;;;;;;25.83;20.30;;;;;;;3.35;100.00;101953.66;5074007;28;20271;-35
2022/12/05 09:14:32;;;;;;;22.50;17.80;;;;;;;3.41;100.00;101950.34;5074813;28;20020;-35
2022/12/05 09:16:58;;;;;;;22.93;18.13;;;;;;;3.59;100.00;101958.34;5074075;28;20457;-34
2022/12/05 09:19:26;;;;;;;25.20;19.50;;;;;;;3.48;100.00;101953.25;5074724;28;20139;-35
2022/12/05 09:21:51;;;;;;;23.10;19.30;;;;;;;3.51;100.00;101955.59;5074273;28;20063;-35
2022/12/05 09:24:17;;;;;;;22.17;18.00;;;;;;;3.47;100.00;101933.69;5073764;28;20036;-35
2022/12/05 09:26:42;;;;;;;24.60;17.73;;;;;;;3.63;100.00;101969.56;5073012;28;20312;-34
2022/12/05 09:29:09;;;;;;;27.13;21.17;;;;;;;3.46;100.00;101961.41;5074243;28;20525;-34
2022/12/05 09:31:35;;;;;;;23.88;20.05;;;;;;;3.49;100.00;101969.13;5073546;28;20063;-35
2022/12/05 09:34:01;;;;;;;23.50;19.27;;;;;;;3.53;100.00;101977.69;5073854;28;20033;-35
2022/12/05 09:36:29;;;;;;;20.83;16.38;;;;;;;3.58;100.00;101978.06;5073930;28;20056;-35
2022/12/05 09:38:59;;;;;;;22.70;18.00;;;;;;;3.63;100.00;101981.09;5074278;28;20029;-35
2022/12/05 09:45:00;;;;;;;25.40;19.52;;;;;;;3.53;100.00;101981.19;5011959;28;20454;-35
2022/12/05 09:47:43;;;;;;;21.35;17.60;;;;;;;3.41;100.00;101946.84;5105344;27;1407435;-33
2022/12/05 09:50:40;;;;;;;21.83;18.67;;;;;;;3.45;100.00;101956.22;5131881;28;20039;-34
2022/12/05 09:53:06;;;;;;;23.55;18.67;;;;;;;3.53;100.00;101981.19;5131779;27;20023;-34
2022/12/05 09:55:48;;;;;;;22.57;18.50;;;;;;;3.49;100.00;101974.47;5131777;27;20375;-34
2022/12/05 09:58:37;;;;;;;18.95;16.33;;;;;;;3.64;100.00;101979.25;5131002;27;20019;-33
2022/12/05 10:01:19;;;;;;;20.80;17.10;;;;;;;3.62;100.00;101984.78;5131436;27;20027;-34
2022/12/05 10:04:04;;;;;;;23.02;19.15;;;;;;;3.57;100.00;101987.09;5131663;27;20038;-34
2022/12/05 10:06:45;;;;;;;17.83;15.20;;;;;;;3.49;100.00;101981.66;5130926;27;20478;-34
2022/12/05 10:09:16;;;;;;;17.73;14.93;;;;;;;3.53;100.00;101985.72;5130658;27;20100;-34
2022/12/05 10:12:14;;;;;;;19.05;14.05;;;;;;;3.53;100.00;101985.72;5131345;28;20028;-34
2022/12/05 10:15:18;;;;;;;17.00;13.25;;;;;;;3.50;100.00;101988.69;5131287;27;20027;-34
2022/12/05 10:17:51;;;;;;;14.80;11.45;;;;;;;3.46;100.00;101990.00;5130650;28;20384;-34
2022/12/05 10:20:28;;;;;;;13.05;11.55;;;;;;;3.46;100.00;101985.47;5130704;27;20031;-33
2022/12/05 10:23:15;;;;;;;12.63;10.23;;;;;;;3.54;100.00;101984.72;5130723;27;20151;-34
2022/12/05 10:25:42;;;;;;;10.95;9.63;;;;;;;3.65;100.00;101979.09;5130576;27;20031;-34
2022/12/05 10:28:14;;;;;;;;;;;;;;;3.69;100.00;101983.13;5131525;27;20031;-34
2022/12/05 10:30:41;;;;;;;11.27;9.88;;;;;;;3.54;100.00;101972.19;5130479;27;19914;-34
2022/12/05 10:33:17;;;;;;;12.07;10.77;;;;;;;3.55;100.00;101986.38;5130460;27;20038;-34
2022/12/05 10:35:43;;;;;;;13.40;11.20;;;;;;;3.55;100.00;101989.06;5130436;27;20036;-34
2022/12/05 10:38:24;;;;;;;14.20;10.68;;;;;;;3.47;100.00;101984.50;5130890;27;20085;-34
2022/12/05 10:40:53;;;;;;;11.88;10.00;;;;;;;3.40;100.00;101991.47;5130297;27;20080;-34
2022/12/05 10:43:25;;;;;;;12.48;10.40;;;;;;;3.42;100.00;101985.97;5130638;27;20088;-33
2022/12/05 10:45:51;;;;;;;11.82;9.77;;;;;;;3.41;100.00;101989.63;5130706;27;20124;-33
2022/12/05 10:48:18;;;;;;;10.55;9.45;;;;;;;3.56;100.00;101985.38;5130574;27;20031;-33
2022/12/05 10:50:47;;;;;;;10.25;8.63;;;;;;;3.61;100.00;101985.75;5129896;27;20027;-33
2022/12/05 10:53:17;;;;;;;10.50;9.40;;;;;;;3.61;100.00;101983.94;5130529;27;20433;-33
2022/12/05 10:55:50;;;;;;;12.35;9.88;;;;;;;3.56;100.00;101988.06;5130436;27;20404;-34
2022/12/05 10:58:23;;;;;;;10.60;9.10;;;;;;;3.66;100.00;101978.13;5120038;27;20062;-33
2022/12/05 11:00:51;;;;;;;10.18;9.02;;;;;;;3.71;100.00;101983.84;5117054;28;20035;-33
2022/12/05 11:03:35;;;;;;;11.23;9.55;;;;;;;3.71;100.00;101981.16;5116731;28;20030;-33
2022/12/05 11:06:28;;;;;;;9.70;8.52;;;;;;;3.83;100.00;101981.72;5115715;28;20027;-33
2022/12/05 11:09:12;;;;;;;9.93;8.82;;;;;;;3.74;100.00;101977.31;5105525;28;20215;-34
2022/12/05 11:11:37;;;;;;;10.52;9.25;;;;;;;3.63;100.00;101973.06;5116249;28;20055;-34
2022/12/05 11:14:06;;;;;;;9.17;7.93;;;;;;;3.72;100.00;101976.66;5114937;28;20476;-34
2022/12/05 11:16:32;;;;;;;10.15;8.60;;;;;;;3.74;100.00;101978.16;5115861;28;20078;-34
2022/12/05 11:19:18;;;;;;;11.00;9.40;;;;;;;3.67;100.00;101976.28;5116416;28;20034;-33
2022/12/05 11:21:43;;;;;;;10.60;8.68;;;;;;;3.68;100.00;101973.44;5116205;28;20030;-34
2022/12/05 11:24:25;;;;;;;10.53;8.17;;;;;;;3.70;100.00;101960.72;5116559;28;20364;-34
2022/12/05 11:26:50;;;;;;;9.25;8.25;;;;;;;3.67;100.00;101971.78;5113833;28;20032;-34
2022/12/05 11:29:34;;;;;;;9.90;8.20;;;;;;;3.71;100.00;101973.13;5116292;28;20107;-34
2022/12/05 11:32:02;;;;;;;9.40;8.45;;;;;;;3.67;100.00;101977.13;5116242;28;20019;-34
2022/12/05 11:34:38;;;;;;;10.88;9.60;;;;;;;3.50;100.00;101953.94;5115807;28;20065;-34
2022/12/05 11:37:09;;;;;;;;;;;;;;;3.77;100.00;101971.66;5115819;28;20509;-34
2022/12/05 11:39:35;;;;;;;8.55;7.25;;;;;;;3.61;100.00;101961.69;5115889;28;19912;-34
2022/12/05 11:42:13;;;;;;;8.35;7.38;;;;;;;3.69;100.00;101980.47;5115555;28;20035;-34